createdAt,value
2023-04-27T00:08:04.225Z,231.17
2023-04-27T00:18:09.118Z,225.63
2023-04-27T00:28:12.498Z,218.03
2023-04-27T00:38:17.407Z,224.53
2023-04-27T00:48:20.839Z,226.00
2023-04-27T00:58:26.023Z,225.73
2023-04-27T01:08:29.796Z,226.80
2023-04-27T01:18:35.139Z,226.67
2023-04-27T01:28:39.852Z,220.00
2023-04-27T01:38:43.586Z,219.63
2023-04-27T01:48:50.988Z,223.73
2023-04-27T01:58:54.739Z,229.27
2023-04-27T02:09:00.138Z,218.10
2023-04-27T02:19:04.383Z,232.53
2023-04-27T02:29:09.191Z,232.07
2023-04-27T02:39:13.437Z,227.37
2023-04-27T02:49:18.989Z,223.90
2023-04-27T02:59:23.461Z,229.33
2023-04-27T03:09:28.291Z,224.33
2023-04-27T03:19:34.142Z,229.93
2023-04-27T03:29:38.921Z,225.07
2023-04-27T03:39:42.434Z,223.03
2023-04-27T03:49:47.886Z,221.97
2023-04-27T03:59:51.976Z,217.97
2023-04-27T04:09:56.846Z,215.57
2023-04-27T04:20:00.784Z,218.50
2023-04-27T04:30:07.545Z,222.93
2023-04-27T04:40:14.291Z,231.93
2023-04-27T04:50:19.351Z,239.47
2023-04-27T05:00:23.427Z,233.03
2023-04-27T05:10:28.206Z,232.10
2023-04-27T05:20:31.555Z,238.07
2023-04-27T05:30:36.332Z,235.17
2023-04-27T05:40:39.829Z,220.73
2023-04-27T05:50:44.557Z,229.27
2023-04-27T06:00:47.967Z,236.00
2023-04-27T06:10:53.250Z,232.53
2023-04-27T06:21:01.794Z,240.33
2023-04-27T06:31:07.367Z,228.53
2023-04-27T06:41:11.003Z,236.73
2023-04-27T06:51:16.136Z,233.60
2023-04-27T07:01:19.603Z,236.00
2023-04-27T07:11:24.692Z,233.97
2023-04-27T07:21:28.659Z,233.20
2023-04-27T07:31:33.935Z,229.47
2023-04-27T07:41:37.308Z,226.30
2023-04-27T07:51:43.073Z,220.23
2023-04-27T08:01:46.608Z,219.80
2023-04-27T08:11:51.501Z,224.77
2023-04-27T08:21:54.831Z,220.20
2023-04-27T08:32:02.577Z,222.67
2023-04-27T08:42:12.795Z,217.37
2023-04-27T08:52:18.467Z,223.53
2023-04-27T09:02:22.594Z,227.73
2023-04-27T09:12:27.313Z,225.07
2023-04-27T09:22:31.503Z,224.80
2023-04-27T09:32:36.223Z,237.37
2023-04-27T09:42:40.159Z,239.30
2023-04-27T09:52:47.808Z,236.93
2023-04-27T10:03:07.588Z,228.57
2023-04-27T10:13:23.949Z,226.30
2023-04-27T10:23:28.982Z,225.67
2023-04-27T10:33:44.063Z,221.53
2023-04-27T10:43:47.476Z,222.20
2023-04-27T10:53:55.567Z,227.63
2023-04-27T11:03:59.941Z,225.50
2023-04-27T11:14:04.741Z,237.10
2023-04-27T11:24:10.111Z,238.07
2023-04-27T11:34:19.685Z,229.10
2023-04-27T11:44:28.382Z,229.50
2023-04-27T11:54:33.127Z,226.67
2023-04-27T12:04:36.719Z,226.17
2023-04-27T12:14:42.085Z,230.17
2023-04-27T12:24:45.570Z,226.57
2023-04-27T12:34:50.273Z,224.57
2023-04-27T12:44:54.849Z,223.60
2023-04-27T12:54:59.692Z,228.97
2023-04-27T13:05:04.133Z,228.83
2023-04-27T13:15:10.884Z,225.57
2023-04-27T13:25:14.257Z,233.87
2023-04-27T13:35:19.244Z,227.60
2023-04-27T13:45:22.890Z,231.47
2023-04-27T13:55:27.710Z,227.27
2023-04-27T14:05:31.917Z,229.43
2023-04-27T14:15:37.588Z,228.07
2023-04-27T14:25:41.463Z,228.17
2023-04-27T14:35:46.202Z,226.20
2023-04-27T14:45:52.608Z,229.43
2023-04-27T14:56:00.424Z,223.33
2023-04-27T15:06:05.502Z,224.50
2023-04-27T15:16:10.269Z,235.90
2023-04-27T15:26:13.640Z,226.17
2023-04-27T15:36:18.446Z,226.97
2023-04-27T15:46:21.829Z,223.33
2023-04-27T15:56:30.032Z,228.13
2023-04-27T16:06:36.686Z,218.57
2023-04-27T16:16:41.541Z,220.80
2023-04-27T16:26:45.997Z,223.00
2023-04-27T16:36:50.950Z,224.30
2023-04-27T16:46:54.298Z,223.60
2023-04-27T16:56:59.035Z,221.37
2023-04-27T17:07:02.587Z,227.17
2023-04-27T17:17:07.715Z,223.87
2023-04-27T17:27:11.599Z,218.70
2023-04-27T17:37:16.343Z,223.40
2023-04-27T17:47:22.281Z,227.50
2023-04-27T17:57:27.132Z,218.50
2023-04-27T18:07:30.474Z,217.73
2023-04-27T18:17:35.418Z,216.33
2023-04-27T18:27:39.010Z,215.30
2023-04-27T18:37:48.169Z,224.30
2023-04-27T18:47:51.756Z,224.13
2023-04-27T18:57:56.953Z,227.00
2023-04-27T19:08:00.421Z,220.07
2023-04-27T19:18:10.453Z,222.47
2023-04-27T19:28:16.556Z,217.27
2023-04-27T19:38:25.197Z,214.30
2023-04-27T19:48:29.082Z,211.70
2023-04-27T19:58:34.693Z,210.13
2023-04-27T20:08:38.095Z,213.83
2023-04-27T20:18:45.336Z,221.67
2023-04-27T20:28:48.670Z,223.40
2023-04-27T20:38:53.553Z,209.23
2023-04-27T20:48:57.072Z,211.53
2023-04-27T20:59:02.005Z,215.37
2023-04-27T21:09:05.568Z,208.90
2023-04-27T21:19:13.128Z,214.47
2023-04-27T21:29:16.572Z,215.90
2023-04-27T21:39:22.339Z,220.07
2023-04-27T21:49:26.335Z,221.83
2023-04-27T21:59:31.256Z,221.53
2023-04-27T22:09:34.705Z,215.00
2023-04-27T22:19:39.407Z,220.37
2023-04-27T22:29:42.932Z,223.97
2023-04-27T22:39:47.681Z,226.93
2023-04-27T22:49:51.024Z,220.43
2023-04-27T22:59:55.797Z,221.13
2023-04-27T23:10:02.888Z,221.57
2023-04-27T23:20:23.989Z,227.37
2023-04-27T23:30:32.532Z,223.77
2023-04-27T23:40:37.337Z,228.83
2023-04-27T23:50:40.770Z,218.93
